sensor_id;sensor_type;location;lat;lon;timestamp;noise_LAeq;noise_LA_min;noise_LA_max;noise_LA01;noise_LA95
51665;Laerm;37751;52.408;12.536;2023-01-10T00:01:41;49.23;41.98;66.97;;
51665;Laerm;37751;52.408;12.536;2023-01-10T00:04:08;54.19;42.19;70.90;;
51665;Laerm;37751;52.408;12.536;2023-01-10T00:06:36;48.04;41.98;65.55;;
51665;Laerm;37751;52.408;12.536;2023-01-10T00:09:04;57.34;44.19;72.98;;
51665;Laerm;37751;52.408;12.536;2023-01-10T00:11:31;53.52;42.96;70.58;;
51665;Laerm;37751;52.408;12.536;2023-01-10T00:14:18;56.12;43.76;72.32;;
51665;Laerm;37751;52.408;12.536;2023-01-10T00:16:46;45.09;41.62;50.92;;
51665;Laerm;37751;52.408;12.536;2023-01-10T00:19:13;45.64;42.75;58.84;;
51665;Laerm;37751;52.408;12.536;2023-01-10T00:21:41;45.37;43.35;47.76;;
51665;Laerm;37751;52.408;12.536;2023-01-10T00:24:10;48.60;41.89;66.43;;
51665;Laerm;37751;52.408;12.536;2023-01-10T00:26:49;47.73;41.33;63.66;;
51665;Laerm;37751;52.408;12.536;2023-01-10T00:29:26;51.14;40.92;68.19;;
51665;Laerm;37751;52.408;12.536;2023-01-10T00:32:01;51.45;41.98;67.57;;
51665;Laerm;37751;52.408;12.536;2023-01-10T00:34:29;53.46;43.16;72.81;;
51665;Laerm;37751;52.408;12.536;2023-01-10T00:36:59;51.28;43.53;64.43;;
51665;Laerm;37751;52.408;12.536;2023-01-10T00:39:26;51.93;44.14;67.11;;
51665;Laerm;37751;52.408;12.536;2023-01-10T00:41:54;48.36;42.75;65.97;;
51665;Laerm;37751;52.408;12.536;2023-01-10T00:44:40;49.81;42.38;64.33;;
51665;Laerm;37751;52.408;12.536;2023-01-10T00:47:26;47.29;41.71;59.61;;
51665;Laerm;37751;52.408;12.536;2023-01-10T00:50:12;44.88;41.03;57.01;;
51665;Laerm;37751;52.408;12.536;2023-01-10T00:52:40;47.10;40.58;61.52;;
51665;Laerm;37751;52.408;12.536;2023-01-10T00:55:08;51.45;40.21;66.54;;
51665;Laerm;37751;52.408;12.536;2023-01-10T00:57:36;52.00;40.92;69.36;;
51665;Laerm;37751;52.408;12.536;2023-01-10T01:00:05;53.79;42.61;70.93;;
51665;Laerm;37751;52.408;12.536;2023-01-10T01:02:35;46.80;41.89;58.17;;
51665;Laerm;37751;52.408;12.536;2023-01-10T01:05:04;49.51;41.53;65.08;;
51665;Laerm;37751;52.408;12.536;2023-01-10T01:07:32;50.68;42.22;66.25;;
51665;Laerm;37751;52.408;12.536;2023-01-10T01:09:59;54.24;42.68;74.36;;
51665;Laerm;37751;52.408;12.536;2023-01-10T01:12:46;44.53;40.92;46.54;;
51665;Laerm;37751;52.408;12.536;2023-01-10T01:15:13;45.93;41.71;58.46;;
51665;Laerm;37751;52.408;12.536;2023-01-10T01:17:41;54.42;42.06;69.72;;
51665;Laerm;37751;52.408;12.536;2023-01-10T01:20:09;55.80;41.13;76.73;;
51665;Laerm;37751;52.408;12.536;2023-01-10T01:22:37;49.63;41.53;61.39;;
51665;Laerm;37751;52.408;12.536;2023-01-10T01:25:06;53.91;42.96;68.51;;
51665;Laerm;37751;52.408;12.536;2023-01-10T01:27:34;52.07;42.30;69.65;;
51665;Laerm;37751;52.408;12.536;2023-01-10T01:30:02;47.22;41.71;63.85;;
51665;Laerm;37751;52.408;12.536;2023-01-10T01:32:30;47.25;43.22;57.67;;
51665;Laerm;37751;52.408;12.536;2023-01-10T01:34:58;50.15;42.96;63.69;;
51665;Laerm;37751;52.408;12.536;2023-01-10T01:37:27;53.83;42.75;73.86;;
51665;Laerm;37751;52.408;12.536;2023-01-10T01:39:54;48.87;42.75;60.20;;
51665;Laerm;37751;52.408;12.536;2023-01-10T01:42:30;53.45;43.22;70.45;;
51665;Laerm;37751;52.408;12.536;2023-01-10T01:50:26;52.53;41.03;69.73;;
51665;Laerm;37751;52.408;12.536;2023-01-10T01:52:59;53.51;43.22;68.29;;
51665;Laerm;37751;52.408;12.536;2023-01-10T01:55:30;44.80;41.33;57.65;;
51665;Laerm;37751;52.408;12.536;2023-01-10T01:58:03;48.76;39.21;66.86;;
51665;Laerm;37751;52.408;12.536;2023-01-10T02:00:32;51.85;41.43;69.81;;
51665;Laerm;37751;52.408;12.536;2023-01-10T02:03:03;49.90;41.43;64.22;;
51665;Laerm;37751;52.408;12.536;2023-01-10T02:05:34;49.63;42.14;62.73;;
51665;Laerm;37751;52.408;12.536;2023-01-10T02:08:04;52.18;43.53;70.70;;
51665;Laerm;37751;52.408;12.536;2023-01-10T02:13:18;56.44;43.47;74.92;;
51665;Laerm;37751;52.408;12.536;2023-01-10T02:15:47;54.60;44.44;70.58;;
51665;Laerm;37751;52.408;12.536;2023-01-10T02:18:15;57.44;43.35;72.87;;
51665;Laerm;37751;52.408;12.536;2023-01-10T02:41:02;57.37;40.58;77.57;;
51665;Laerm;37751;52.408;12.536;2023-01-10T02:43:38;49.09;41.53;66.76;;
51665;Laerm;37751;52.408;12.536;2023-01-10T02:46:14;52.24;42.46;67.80;;
51665;Laerm;37751;52.408;12.536;2023-01-10T02:48:43;54.14;42.46;67.85;;
51665;Laerm;37751;52.408;12.536;2023-01-10T02:51:25;56.65;42.53;75.44;;
51665;Laerm;37751;52.408;12.536;2023-01-10T02:54:10;54.34;44.37;68.67;;
51665;Laerm;37751;52.408;12.536;2023-01-10T03:08:30;56.67;42.14;72.80;;
51665;Laerm;37751;52.408;12.536;2023-01-10T03:11:03;56.56;44.77;70.99;;
51665;Laerm;37751;52.408;12.536;2023-01-10T03:13:47;56.24;44.24;72.10;;
51665;Laerm;37751;52.408;12.536;2023-01-10T03:16:22;58.58;44.94;71.30;;
51665;Laerm;37751;52.408;12.536;2023-01-10T03:19:01;53.89;43.82;66.34;;
51665;Laerm;37751;52.408;12.536;2023-01-10T03:21:31;55.21;45.76;69.73;;
51665;Laerm;37751;52.408;12.536;2023-01-10T03:24:07;55.88;44.54;72.63;;
51665;Laerm;37751;52.408;12.536;2023-01-10T03:29:44;55.94;45.03;69.39;;
51665;Laerm;37751;52.408;12.536;2023-01-10T03:32:21;61.88;48.54;75.40;;
51665;Laerm;37751;52.408;12.536;2023-01-10T03:34:50;60.33;49.29;72.30;;
51665;Laerm;37751;52.408;12.536;2023-01-10T03:40:35;61.68;50.46;74.58;;
51665;Laerm;37751;52.408;12.536;2023-01-10T03:43:32;60.51;51.34;70.87;;
51665;Laerm;37751;52.408;12.536;2023-01-10T03:46:36;61.51;50.49;75.81;;
51665;Laerm;37751;52.408;12.536;2023-01-10T03:49:08;62.06;46.30;77.86;;
51665;Laerm;37751;52.408;12.536;2023-01-10T03:51:38;62.30;47.33;75.58;;
51665;Laerm;37751;52.408;12.536;2023-01-10T03:54:06;62.46;50.08;72.92;;
51665;Laerm;37751;52.408;12.536;2023-01-10T03:56:48;61.15;47.55;75.23;;
51665;Laerm;37751;52.408;12.536;2023-01-10T03:59:18;62.99;49.43;75.22;;
51665;Laerm;37751;52.408;12.536;2023-01-10T04:01:47;59.94;48.46;72.02;;
51665;Laerm;37751;52.408;12.536;2023-01-10T04:04:15;61.13;51.19;73.44;;
51665;Laerm;37751;52.408;12.536;2023-01-10T04:06:43;59.75;48.52;72.29;;
51665;Laerm;37751;52.408;12.536;2023-01-10T04:09:11;59.49;48.46;68.40;;
51665;Laerm;37751;52.408;12.536;2023-01-10T04:11:39;59.88;49.52;71.71;;
51665;Laerm;37751;52.408;12.536;2023-01-10T04:14:06;62.91;50.03;73.63;;
51665;Laerm;37751;52.408;12.536;2023-01-10T04:16:34;63.01;50.29;74.21;;
51665;Laerm;37751;52.408;12.536;2023-01-10T04:19:02;60.84;51.67;73.09;;
51665;Laerm;37751;52.408;12.536;2023-01-10T04:21:29;62.69;48.28;75.83;;
51665;Laerm;37751;52.408;12.536;2023-01-10T04:23:57;61.90;50.94;72.55;;
51665;Laerm;37751;52.408;12.536;2023-01-10T04:26:25;61.63;50.87;72.08;;
51665;Laerm;37751;52.408;12.536;2023-01-10T04:28:52;62.62;53.20;73.31;;
51665;Laerm;37751;52.408;12.536;2023-01-10T04:31:20;62.56;50.33;73.34;;
51665;Laerm;37751;52.408;12.536;2023-01-10T04:33:49;61.73;48.02;72.95;;
51665;Laerm;37751;52.408;12.536;2023-01-10T04:36:16;62.25;50.06;72.86;;
51665;Laerm;37751;52.408;12.536;2023-01-10T04:38:44;63.43;49.07;75.51;;
51665;Laerm;37751;52.408;12.536;2023-01-10T04:41:12;63.09;50.14;74.19;;
51665;Laerm;37751;52.408;12.536;2023-01-10T04:43:39;62.71;49.25;75.05;;
51665;Laerm;37751;52.408;12.536;2023-01-10T04:46:07;63.85;51.79;73.81;;
51665;Laerm;37751;52.408;12.536;2023-01-10T04:48:35;62.67;52.31;80.58;;
51665;Laerm;37751;52.408;12.536;2023-01-10T04:51:03;62.54;49.92;73.29;;
51665;Laerm;37751;52.408;12.536;2023-01-10T04:53:31;62.94;51.23;71.10;;
51665;Laerm;37751;52.408;12.536;2023-01-10T04:56:06;61.51;50.30;71.00;;
51665;Laerm;37751;52.408;12.536;2023-01-10T04:58:36;64.46;50.34;76.44;;
51665;Laerm;37751;52.408;12.536;2023-01-10T05:01:20;62.25;48.91;74.05;;
51665;Laerm;37751;52.408;12.536;2023-01-10T05:03:54;63.46;48.77;83.85;;
51665;Laerm;37751;52.408;12.536;2023-01-10T05:06:23;63.93;51.70;76.73;;
51665;Laerm;37751;52.408;12.536;2023-01-10T05:08:51;63.88;49.88;76.42;;
51665;Laerm;37751;52.408;12.536;2023-01-10T05:11:18;64.10;51.38;77.58;;
51665;Laerm;37751;52.408;12.536;2023-01-10T05:13:46;62.09;48.95;71.49;;
51665;Laerm;37751;52.408;12.536;2023-01-10T05:16:15;63.42;50.69;74.80;;
51665;Laerm;37751;52.408;12.536;2023-01-10T05:18:43;63.06;52.26;73.30;;
51665;Laerm;37751;52.408;12.536;2023-01-10T05:21:12;66.65;54.11;81.31;;
51665;Laerm;37751;52.408;12.536;2023-01-10T05:23:40;62.61;49.55;71.78;;
51665;Laerm;37751;52.408;12.536;2023-01-10T05:26:14;64.61;50.83;75.24;;
51665;Laerm;37751;52.408;12.536;2023-01-10T05:28:42;63.75;47.41;73.39;;
51665;Laerm;37751;52.408;12.536;2023-01-10T05:31:17;64.12;52.12;72.63;;
51665;Laerm;37751;52.408;12.536;2023-01-10T05:33:47;64.20;51.77;72.91;;
51665;Laerm;37751;52.408;12.536;2023-01-10T05:36:16;64.11;50.41;72.78;;
51665;Laerm;37751;52.408;12.536;2023-01-10T05:38:44;63.97;52.30;74.62;;
51665;Laerm;37751;52.408;12.536;2023-01-10T05:41:12;65.75;55.32;80.88;;
51665;Laerm;37751;52.408;12.536;2023-01-10T05:43:40;64.02;50.89;74.54;;
51665;Laerm;37751;52.408;12.536;2023-01-10T05:46:08;66.30;52.66;84.44;;
51665;Laerm;37751;52.408;12.536;2023-01-10T05:48:36;64.44;52.83;72.42;;
51665;Laerm;37751;52.408;12.536;2023-01-10T05:51:04;65.24;55.03;77.67;;
51665;Laerm;37751;52.408;12.536;2023-01-10T05:53:32;64.21;52.21;73.65;;
51665;Laerm;37751;52.408;12.536;2023-01-10T05:56:01;64.83;51.39;76.90;;
51665;Laerm;37751;52.408;12.536;2023-01-10T05:58:29;65.68;54.04;74.66;;
51665;Laerm;37751;52.408;12.536;2023-01-10T06:00:57;63.52;52.05;76.02;;
51665;Laerm;37751;52.408;12.536;2023-01-10T06:03:25;64.67;52.50;75.08;;
51665;Laerm;37751;52.408;12.536;2023-01-10T06:05:54;65.38;52.88;75.16;;
51665;Laerm;37751;52.408;12.536;2023-01-10T06:08:22;66.53;56.07;89.09;;
51665;Laerm;37751;52.408;12.536;2023-01-10T06:10:51;63.93;52.56;71.92;;
51665;Laerm;37751;52.408;12.536;2023-01-10T06:13:19;64.58;53.84;82.64;;
51665;Laerm;37751;52.408;12.536;2023-01-10T06:15:47;61.28;48.79;70.59;;
51665;Laerm;37751;52.408;12.536;2023-01-10T06:18:15;74.32;52.90;100.71;;
51665;Laerm;37751;52.408;12.536;2023-01-10T06:20:43;63.56;52.21;73.14;;
51665;Laerm;37751;52.408;12.536;2023-01-10T06:23:11;65.22;55.51;74.44;;
51665;Laerm;37751;52.408;12.536;2023-01-10T06:25:39;64.79;51.62;74.25;;
51665;Laerm;37751;52.408;12.536;2023-01-10T06:28:10;64.41;50.53;76.35;;
51665;Laerm;37751;52.408;12.536;2023-01-10T06:30:40;62.81;52.70;72.69;;
51665;Laerm;37751;52.408;12.536;2023-01-10T06:33:09;64.71;52.07;74.49;;
51665;Laerm;37751;52.408;12.536;2023-01-10T06:35:38;63.45;53.33;73.17;;
51665;Laerm;37751;52.408;12.536;2023-01-10T06:38:06;64.01;52.94;71.36;;
51665;Laerm;37751;52.408;12.536;2023-01-10T06:40:34;65.00;54.10;79.33;;
51665;Laerm;37751;52.408;12.536;2023-01-10T06:43:02;64.75;48.38;78.42;;
51665;Laerm;37751;52.408;12.536;2023-01-10T06:45:29;65.67;52.97;76.08;;
51665;Laerm;37751;52.408;12.536;2023-01-10T06:47:57;63.78;49.77;74.54;;
51665;Laerm;37751;52.408;12.536;2023-01-10T06:50:25;63.28;52.25;71.99;;
51665;Laerm;37751;52.408;12.536;2023-01-10T06:53:02;65.25;55.11;78.65;;
51665;Laerm;37751;52.408;12.536;2023-01-10T06:55:30;66.79;54.31;81.60;;
51665;Laerm;37751;52.408;12.536;2023-01-10T06:58:01;64.79;53.03;72.53;;
51665;Laerm;37751;52.408;12.536;2023-01-10T07:00:30;65.07;52.75;73.94;;
51665;Laerm;37751;52.408;12.536;2023-01-10T07:02:59;67.74;57.55;78.84;;
51665;Laerm;37751;52.408;12.536;2023-01-10T07:05:28;67.85;63.66;75.90;;
51665;Laerm;37751;52.408;12.536;2023-01-10T07:07:57;66.78;57.08;78.28;;
51665;Laerm;37751;52.408;12.536;2023-01-10T07:10:25;61.75;52.62;71.70;;
51665;Laerm;37751;52.408;12.536;2023-01-10T07:12:55;65.78;53.90;76.35;;
51665;Laerm;37751;52.408;12.536;2023-01-10T07:15:25;64.82;53.89;76.41;;
51665;Laerm;37751;52.408;12.536;2023-01-10T07:17:56;63.56;53.26;74.31;;
51665;Laerm;37751;52.408;12.536;2023-01-10T07:20:25;64.60;54.65;73.47;;
51665;Laerm;37751;52.408;12.536;2023-01-10T07:22:58;65.34;53.66;76.07;;
51665;Laerm;37751;52.408;12.536;2023-01-10T07:25:27;65.39;53.60;76.18;;
51665;Laerm;37751;52.408;12.536;2023-01-10T07:27:56;64.42;53.51;73.10;;
51665;Laerm;37751;52.408;12.536;2023-01-10T07:30:24;65.80;53.07;74.53;;
51665;Laerm;37751;52.408;12.536;2023-01-10T07:32:56;64.86;53.26;76.32;;
51665;Laerm;37751;52.408;12.536;2023-01-10T07:35:24;65.34;53.55;78.69;;
51665;Laerm;37751;52.408;12.536;2023-01-10T07:37:52;66.09;55.69;74.45;;
51665;Laerm;37751;52.408;12.536;2023-01-10T07:40:20;65.49;56.30;72.38;;
51665;Laerm;37751;52.408;12.536;2023-01-10T07:42:47;66.32;56.52;80.06;;
51665;Laerm;37751;52.408;12.536;2023-01-10T07:45:16;66.40;57.66;80.57;;
51665;Laerm;37751;52.408;12.536;2023-01-10T07:47:44;67.30;56.90;78.37;;
51665;Laerm;37751;52.408;12.536;2023-01-10T07:50:11;66.29;58.57;80.36;;
51665;Laerm;37751;52.408;12.536;2023-01-10T07:52:39;65.63;56.34;79.17;;
51665;Laerm;37751;52.408;12.536;2023-01-10T07:55:07;66.10;56.05;84.26;;
51665;Laerm;37751;52.408;12.536;2023-01-10T07:57:35;66.32;55.96;76.83;;
51665;Laerm;37751;52.408;12.536;2023-01-10T08:00:03;66.67;52.44;78.11;;
51665;Laerm;37751;52.408;12.536;2023-01-10T08:02:31;64.52;55.39;73.29;;
51665;Laerm;37751;52.408;12.536;2023-01-10T08:04:59;65.60;54.31;83.94;;
51665;Laerm;37751;52.408;12.536;2023-01-10T08:07:30;64.77;52.85;75.90;;
51665;Laerm;37751;52.408;12.536;2023-01-10T08:09:58;65.49;52.80;74.29;;
51665;Laerm;37751;52.408;12.536;2023-01-10T08:12:26;65.87;58.63;73.38;;
51665;Laerm;37751;52.408;12.536;2023-01-10T08:14:53;64.51;54.12;72.62;;
51665;Laerm;37751;52.408;12.536;2023-01-10T08:17:21;65.99;55.89;78.32;;
51665;Laerm;37751;52.408;12.536;2023-01-10T08:19:49;66.80;59.50;74.07;;
51665;Laerm;37751;52.408;12.536;2023-01-10T08:22:17;66.13;55.06;74.50;;
51665;Laerm;37751;52.408;12.536;2023-01-10T08:24:44;66.34;55.92;75.67;;
51665;Laerm;37751;52.408;12.536;2023-01-10T08:27:12;66.48;55.56;77.03;;
51665;Laerm;37751;52.408;12.536;2023-01-10T08:29:40;65.02;57.12;74.14;;
51665;Laerm;37751;52.408;12.536;2023-01-10T08:32:08;67.31;56.71;75.20;;
51665;Laerm;37751;52.408;12.536;2023-01-10T08:34:36;69.23;61.88;78.39;;
51665;Laerm;37751;52.408;12.536;2023-01-10T08:37:04;68.53;62.00;74.50;;
51665;Laerm;37751;52.408;12.536;2023-01-10T08:39:31;69.85;63.77;84.98;;
51665;Laerm;37751;52.408;12.536;2023-01-10T08:42:01;69.85;63.45;77.73;;
51665;Laerm;37751;52.408;12.536;2023-01-10T08:44:29;70.03;62.95;78.44;;
51665;Laerm;37751;52.408;12.536;2023-01-10T08:46:56;74.14;67.11;81.57;;
51665;Laerm;37751;52.408;12.536;2023-01-10T08:49:24;73.42;64.66;81.64;;
51665;Laerm;37751;52.408;12.536;2023-01-10T08:51:51;72.85;60.45;82.49;;
51665;Laerm;37751;52.408;12.536;2023-01-10T08:54:19;70.39;61.55;75.81;;
51665;Laerm;37751;52.408;12.536;2023-01-10T08:56:47;70.15;62.94;76.42;;
51665;Laerm;37751;52.408;12.536;2023-01-10T08:59:14;67.02;57.50;75.60;;
51665;Laerm;37751;52.408;12.536;2023-01-10T09:01:42;66.79;55.35;77.32;;
51665;Laerm;37751;52.408;12.536;2023-01-10T09:04:10;65.18;53.36;77.99;;
51665;Laerm;37751;52.408;12.536;2023-01-10T09:06:38;66.11;53.45;75.81;;
51665;Laerm;37751;52.408;12.536;2023-01-10T09:09:06;65.88;52.56;75.01;;
51665;Laerm;37751;52.408;12.536;2023-01-10T09:11:33;65.44;55.07;75.23;;
51665;Laerm;37751;52.408;12.536;2023-01-10T09:14:01;66.46;55.21;76.85;;
51665;Laerm;37751;52.408;12.536;2023-01-10T09:16:29;66.18;52.66;83.84;;
51665;Laerm;37751;52.408;12.536;2023-01-10T09:18:57;64.59;53.74;74.37;;
51665;Laerm;37751;52.408;12.536;2023-01-10T09:21:26;67.71;50.44;79.76;;
51665;Laerm;37751;52.408;12.536;2023-01-10T09:23:54;73.57;54.95;95.96;;
51665;Laerm;37751;52.408;12.536;2023-01-10T09:26:22;65.35;54.19;76.83;;
51665;Laerm;37751;52.408;12.536;2023-01-10T09:28:50;75.48;56.87;93.56;;
51665;Laerm;37751;52.408;12.536;2023-01-10T09:31:17;65.58;54.46;77.77;;
51665;Laerm;37751;52.408;12.536;2023-01-10T09:33:45;66.97;56.27;84.15;;
51665;Laerm;37751;52.408;12.536;2023-01-10T09:36:15;66.72;55.09;73.08;;
51665;Laerm;37751;52.408;12.536;2023-01-10T09:38:43;67.59;60.54;77.11;;
51665;Laerm;37751;52.408;12.536;2023-01-10T09:41:42;68.53;60.15;81.20;;
51665;Laerm;37751;52.408;12.536;2023-01-10T09:45:29;67.21;58.01;80.52;;
51665;Laerm;37751;52.408;12.536;2023-01-10T09:47:51;77.74;66.82;96.75;;
51665;Laerm;37751;52.408;12.536;2023-01-10T09:53:33;77.16;65.09;83.03;;
51665;Laerm;37751;52.408;12.536;2023-01-10T09:56:03;77.88;69.07;83.94;;
51665;Laerm;37751;52.408;12.536;2023-01-10T09:58:33;68.14;57.93;74.69;;
51665;Laerm;37751;52.408;12.536;2023-01-10T10:01:10;70.03;62.72;79.54;;
51665;Laerm;37751;52.408;12.536;2023-01-10T10:04:01;65.30;54.49;75.72;;
51665;Laerm;37751;52.408;12.536;2023-01-10T10:06:31;66.55;58.04;79.57;;
51665;Laerm;37751;52.408;12.536;2023-01-10T10:09:01;67.11;57.11;75.02;;
51665;Laerm;37751;52.408;12.536;2023-01-10T10:12:03;64.74;54.57;77.02;;
51665;Laerm;37751;52.408;12.536;2023-01-10T10:34:44;66.34;56.39;77.55;;
51665;Laerm;37751;52.408;12.536;2023-01-10T10:37:21;66.22;50.70;79.47;;
51665;Laerm;37751;52.408;12.536;2023-01-10T10:39:54;64.92;54.25;76.25;;
51665;Laerm;37751;52.408;12.536;2023-01-10T10:42:28;66.10;55.57;77.82;;
51665;Laerm;37751;52.408;12.536;2023-01-10T10:45:06;65.69;56.02;82.20;;
51665;Laerm;37751;52.408;12.536;2023-01-10T10:47:47;63.99;54.58;73.37;;
51665;Laerm;37751;52.408;12.536;2023-01-10T10:50:26;65.54;56.12;73.53;;
51665;Laerm;37751;52.408;12.536;2023-01-10T10:53:02;65.16;56.06;73.36;;
51665;Laerm;37751;52.408;12.536;2023-01-10T10:55:35;65.42;55.69;76.64;;
51665;Laerm;37751;52.408;12.536;2023-01-10T10:58:06;65.84;57.23;85.08;;
51665;Laerm;37751;52.408;12.536;2023-01-10T11:00:34;65.21;57.13;84.15;;
51665;Laerm;37751;52.408;12.536;2023-01-10T11:03:24;65.15;53.93;77.30;;
51665;Laerm;37751;52.408;12.536;2023-01-10T11:05:52;64.63;53.51;77.50;;
51665;Laerm;37751;52.408;12.536;2023-01-10T11:08:21;66.78;55.27;81.12;;
51665;Laerm;37751;52.408;12.536;2023-01-10T11:10:58;66.21;56.99;78.11;;
51665;Laerm;37751;52.408;12.536;2023-01-10T11:16:04;64.79;53.89;75.42;;
51665;Laerm;37751;52.408;12.536;2023-01-10T11:18:33;73.11;54.03;94.40;;
51665;Laerm;37751;52.408;12.536;2023-01-10T11:21:11;64.91;55.33;72.59;;
51665;Laerm;37751;52.408;12.536;2023-01-10T11:23:52;64.42;52.77;82.05;;
51665;Laerm;37751;52.408;12.536;2023-01-10T11:26:27;64.80;50.78;75.44;;
51665;Laerm;37751;52.408;12.536;2023-01-10T11:31:35;64.12;53.84;77.88;;
51665;Laerm;37751;52.408;12.536;2023-01-10T11:34:15;65.21;55.84;79.46;;
51665;Laerm;37751;52.408;12.536;2023-01-10T11:37:22;64.82;55.33;75.31;;
51665;Laerm;37751;52.408;12.536;2023-01-10T11:40:26;66.08;59.47;76.80;;
51665;Laerm;37751;52.408;12.536;2023-01-10T11:42:57;65.58;55.75;76.92;;
51665;Laerm;37751;52.408;12.536;2023-01-10T11:45:33;66.52;54.33;79.52;;
51665;Laerm;37751;52.408;12.536;2023-01-10T11:48:20;64.99;54.26;75.96;;
51665;Laerm;37751;52.408;12.536;2023-01-10T11:51:23;65.65;55.90;75.75;;
51665;Laerm;37751;52.408;12.536;2023-01-10T11:54:05;64.99;54.28;75.46;;
51665;Laerm;37751;52.408;12.536;2023-01-10T11:56:35;64.17;54.86;79.16;;
51665;Laerm;37751;52.408;12.536;2023-01-10T11:59:13;64.48;54.86;74.34;;
51665;Laerm;37751;52.408;12.536;2023-01-10T12:01:59;65.84;56.82;74.97;;
51665;Laerm;37751;52.408;12.536;2023-01-10T12:04:31;65.82;56.84;75.72;;
51665;Laerm;37751;52.408;12.536;2023-01-10T12:07:08;67.35;57.42;76.94;;
51665;Laerm;37751;52.408;12.536;2023-01-10T12:09:43;65.33;53.38;75.58;;
51665;Laerm;37751;52.408;12.536;2023-01-10T12:14:48;65.04;55.10;79.52;;
51665;Laerm;37751;52.408;12.536;2023-01-10T12:17:29;67.39;57.63;78.19;;
51665;Laerm;37751;52.408;12.536;2023-01-10T12:19:59;72.24;55.90;88.41;;
51665;Laerm;37751;52.408;12.536;2023-01-10T12:22:41;65.57;54.80;79.35;;
51665;Laerm;37751;52.408;12.536;2023-01-10T12:25:35;66.00;55.01;74.48;;
51665;Laerm;37751;52.408;12.536;2023-01-10T12:28:29;65.63;55.43;76.46;;
51665;Laerm;37751;52.408;12.536;2023-01-10T12:30:58;65.97;55.60;79.16;;
51665;Laerm;37751;52.408;12.536;2023-01-10T12:33:35;64.42;54.93;72.81;;
51665;Laerm;37751;52.408;12.536;2023-01-10T12:36:35;65.37;54.74;79.02;;
51665;Laerm;37751;52.408;12.536;2023-01-10T12:39:26;65.69;55.65;79.00;;
51665;Laerm;37751;52.408;12.536;2023-01-10T12:48:11;65.36;55.10;73.79;;
51665;Laerm;37751;52.408;12.536;2023-01-10T12:50:47;66.47;59.57;73.28;;
51665;Laerm;37751;52.408;12.536;2023-01-10T12:55:56;66.38;60.15;74.19;;
51665;Laerm;37751;52.408;12.536;2023-01-10T12:58:51;64.40;52.24;83.26;;
51665;Laerm;37751;52.408;12.536;2023-01-10T13:01:30;67.89;56.05;83.41;;
51665;Laerm;37751;52.408;12.536;2023-01-10T13:04:05;65.46;56.86;73.93;;
51665;Laerm;37751;52.408;12.536;2023-01-10T13:06:36;66.18;56.58;82.50;;
51665;Laerm;37751;52.408;12.536;2023-01-10T13:09:10;66.07;55.46;76.71;;
51665;Laerm;37751;52.408;12.536;2023-01-10T13:12:12;66.39;55.82;80.89;;
51665;Laerm;37751;52.408;12.536;2023-01-10T13:22:56;66.25;55.12;82.52;;
51665;Laerm;37751;52.408;12.536;2023-01-10T13:25:32;66.50;56.74;79.37;;
51665;Laerm;37751;52.408;12.536;2023-01-10T13:28:17;67.24;57.87;78.39;;
51665;Laerm;37751;52.408;12.536;2023-01-10T13:31:01;68.93;61.49;86.58;;
51665;Laerm;37751;52.408;12.536;2023-01-10T13:33:35;73.03;62.33;94.08;;
51665;Laerm;37751;52.408;12.536;2023-01-10T13:36:23;70.39;62.40;97.16;;
51665;Laerm;37751;52.408;12.536;2023-01-10T13:39:00;75.29;62.52;95.84;;
51665;Laerm;37751;52.408;12.536;2023-01-10T13:45:27;70.82;58.62;95.33;;
51665;Laerm;37751;52.408;12.536;2023-01-10T13:55:54;76.62;66.46;100.98;;
51665;Laerm;37751;52.408;12.536;2023-01-10T14:01:32;74.50;65.57;100.55;;
51665;Laerm;37751;52.408;12.536;2023-01-10T14:04:26;75.34;62.22;96.93;;
51665;Laerm;37751;52.408;12.536;2023-01-10T14:09:41;77.22;63.30;96.67;;
51665;Laerm;37751;52.408;12.536;2023-01-10T14:15:27;74.35;63.42;101.05;;
51665;Laerm;37751;52.408;12.536;2023-01-10T14:18:01;76.51;64.49;100.68;;
51665;Laerm;37751;52.408;12.536;2023-01-10T14:20:33;77.24;63.81;101.17;;
51665;Laerm;37751;52.408;12.536;2023-01-10T14:23:27;73.66;65.42;94.70;;
51665;Laerm;37751;52.408;12.536;2023-01-10T14:25:55;71.91;56.81;96.44;;
51665;Laerm;37751;52.408;12.536;2023-01-10T14:28:28;64.68;55.36;82.19;;
51665;Laerm;37751;52.408;12.536;2023-01-10T14:31:20;65.74;53.18;74.54;;
51665;Laerm;37751;52.408;12.536;2023-01-10T14:33:48;65.82;54.47;73.80;;
51665;Laerm;37751;52.408;12.536;2023-01-10T14:38:58;75.15;69.23;86.65;;
51665;Laerm;37751;52.408;12.536;2023-01-10T14:41:40;76.69;69.14;90.30;;
51665;Laerm;37751;52.408;12.536;2023-01-10T14:44:23;75.33;68.27;95.70;;
51665;Laerm;37751;52.408;12.536;2023-01-10T14:46:56;74.53;62.48;94.86;;
51665;Laerm;37751;52.408;12.536;2023-01-10T14:49:34;72.81;61.62;101.18;;
51665;Laerm;37751;52.408;12.536;2023-01-10T14:54:43;65.29;56.12;76.85;;
51665;Laerm;37751;52.408;12.536;2023-01-10T14:57:22;65.73;57.33;73.37;;
51665;Laerm;37751;52.408;12.536;2023-01-10T14:59:52;66.73;56.50;76.02;;
51665;Laerm;37751;52.408;12.536;2023-01-10T15:02:27;66.00;53.21;82.10;;
51665;Laerm;37751;52.408;12.536;2023-01-10T15:05:05;66.64;53.26;84.21;;
51665;Laerm;37751;52.408;12.536;2023-01-10T15:07:36;65.99;55.41;74.88;;
51665;Laerm;37751;52.408;12.536;2023-01-10T15:10:27;66.06;52.75;89.34;;
51665;Laerm;37751;52.408;12.536;2023-01-10T15:13:01;65.18;56.69;74.55;;
51665;Laerm;37751;52.408;12.536;2023-01-10T15:15:32;67.02;58.50;81.35;;
51665;Laerm;37751;52.408;12.536;2023-01-10T15:18:17;67.26;57.41;82.31;;
51665;Laerm;37751;52.408;12.536;2023-01-10T15:20:48;65.86;55.93;78.44;;
51665;Laerm;37751;52.408;12.536;2023-01-10T15:23:16;65.23;57.89;74.97;;
51665;Laerm;37751;52.408;12.536;2023-01-10T15:25:44;65.87;58.12;76.06;;
51665;Laerm;37751;52.408;12.536;2023-01-10T15:28:17;65.79;56.90;74.04;;
51665;Laerm;37751;52.408;12.536;2023-01-10T15:30:46;67.41;57.90;82.36;;
51665;Laerm;37751;52.408;12.536;2023-01-10T15:33:20;65.51;55.60;74.12;;
51665;Laerm;37751;52.408;12.536;2023-01-10T15:35:51;65.53;51.70;76.80;;
51665;Laerm;37751;52.408;12.536;2023-01-10T15:38:21;65.33;53.57;74.66;;
51665;Laerm;37751;52.408;12.536;2023-01-10T15:41:01;64.11;54.26;74.11;;
51665;Laerm;37751;52.408;12.536;2023-01-10T15:43:32;64.87;54.11;71.64;;
51665;Laerm;37751;52.408;12.536;2023-01-10T15:46:03;65.62;52.84;77.39;;
51665;Laerm;37751;52.408;12.536;2023-01-10T15:48:39;64.87;52.00;76.16;;
51665;Laerm;37751;52.408;12.536;2023-01-10T15:54:28;65.22;54.20;75.06;;
51665;Laerm;37751;52.408;12.536;2023-01-10T15:57:05;66.24;55.04;83.02;;
51665;Laerm;37751;52.408;12.536;2023-01-10T15:59:39;63.69;53.39;70.38;;
51665;Laerm;37751;52.408;12.536;2023-01-10T16:04:39;64.65;53.80;72.91;;
51665;Laerm;37751;52.408;12.536;2023-01-10T16:07:15;65.79;55.06;74.48;;
51665;Laerm;37751;52.408;12.536;2023-01-10T16:10:04;65.00;54.94;73.37;;